Time;durP1;ratioP1;P1;durP2;ratioP2;P2;SDS_P1;SDS_P2;PMS_P1;PMS_P2;Temp;Humidity;BMP_temperature;BMP_pressure;BME280_temperature;BME280_humidity;BME280_pressure;Samples;Min_cycle;Max_cycle;Signal;HPM_P1;HPM_P2
2022/09/23 00:02:09;;;;;;;;;;;;;;;13.73;60.39;100009.72;5102046;28;19974;-71
2022/09/23 00:04:35;;;;;;;;;;;;;;;13.65;60.61;100008.94;5102851;28;19927;-71
2022/09/23 00:07:00;;;;;;;;;;;;;;;13.72;60.59;100009.88;5102781;28;19915;-70
2022/09/23 00:09:25;;;;;;;;;;;;;;;13.56;61.64;100013.47;5104376;28;19919;-70
2022/09/23 00:11:50;;;;;;;;;;;;;;;13.76;61.30;100013.03;5103546;28;19920;-70
2022/09/23 00:14:16;;;;;;;;;;;;;;;13.77;60.51;100012.84;5101869;28;20095;-70
2022/09/23 00:16:41;;;;;;;;;;;;;;;13.58;61.80;100006.16;5102455;28;19983;-71
2022/09/23 00:19:07;;;;;;;;;;;;;;;13.55;61.97;100008.31;5104728;28;19912;-71
2022/09/23 00:21:32;;;;;;;;;;;;;;;13.59;62.01;100004.31;5104210;28;19942;-71
2022/09/23 00:23:57;;;;;;;;;;;;;;;13.70;61.66;100009.22;5101664;28;19912;-71
2022/09/23 00:26:23;;;;;;;;;;;;;;;13.89;61.00;100008.78;5085803;28;19916;-71
2022/09/23 00:28:49;;;;;;;;;;;;;;;13.86;60.57;100008.31;5103798;28;19908;-71
2022/09/23 00:31:15;;;;;;;;;;;;;;;13.59;61.40;100006.97;5083690;28;19939;-71
2022/09/23 00:33:41;;;;;;;;;;;;;;;13.75;61.00;100001.56;5101484;28;19912;-71
2022/09/23 00:36:09;;;;;;;;;;;;;;;13.53;61.68;99994.38;5102827;28;19951;-71
2022/09/23 00:38:35;;;;;;;;;;;;;;;13.63;61.47;99997.63;5103738;28;19915;-71
2022/09/23 00:41:01;;;;;;;;;;;;;;;13.90;60.48;99988.31;5103064;28;19915;-71
2022/09/23 00:43:42;;;;;;;;;;;;;;;13.91;60.39;100004.09;5104459;28;20300;-71
2022/09/23 00:46:08;;;;;;;;;;;;;;;14.01;60.00;99998.53;5104751;28;19923;-71
2022/09/23 00:48:36;;;;;;;;;;;;;;;13.91;60.10;100003.28;5101831;28;19924;-71
2022/09/23 00:51:01;;;;;;;;;;;;;;;13.78;60.48;100003.88;5100639;28;19924;-71
2022/09/23 00:53:27;;;;;;;;;;;;;;;13.66;61.04;99997.28;5101527;28;19919;-71
2022/09/23 00:55:57;;;;;;;;;;;;;;;13.63;60.98;99998.47;5102254;28;19916;-71
2022/09/23 00:58:25;;;;;;;;;;;;;;;13.74;60.76;100005.22;5103538;28;19908;-71
2022/09/23 01:00:52;;;;;;;;;;;;;;;13.72;61.04;99997.41;5101241;28;19923;-71
2022/09/23 01:03:18;;;;;;;;;;;;;;;13.74;61.12;100003.38;5100980;28;20128;-71
2022/09/23 01:05:43;;;;;;;;;;;;;;;13.70;61.00;100006.56;5100748;28;19915;-71
2022/09/23 01:08:11;;;;;;;;;;;;;;;13.58;61.12;100008.81;5100995;28;19919;-71
2022/09/23 01:10:51;;;;;;;;;;;;;;;13.56;61.40;100005.50;5083074;28;20201;-71
2022/09/23 01:13:26;;;;;;;;;;;;;;;13.36;62.00;100015.69;5102591;28;19919;-71
2022/09/23 01:15:51;;;;;;;;;;;;;;;13.67;61.07;100010.41;5103049;28;19961;-70
2022/09/23 01:18:35;;;;;;;;;;;;;;;13.85;60.44;100009.31;5101928;28;20349;-71
2022/09/23 01:21:16;;;;;;;;;;;;;;;13.50;61.47;100006.16;5103393;28;19920;-71
2022/09/23 01:24:01;;;;;;;;;;;;;;;13.51;61.77;100004.31;5102011;28;20197;-71
2022/09/23 01:26:45;;;;;;;;;;;;;;;13.64;61.72;100005.44;5100728;28;20263;-71
2022/09/23 01:29:22;;;;;;;;;;;;;;;13.55;61.90;100001.16;5084953;28;20108;-71
2022/09/23 01:31:57;;;;;;;;;;;;;;;13.68;61.29;99998.75;5101982;28;19920;-71
2022/09/23 01:34:33;;;;;;;;;;;;;;;13.21;63.27;100005.97;5101099;28;19919;-71
2022/09/23 01:37:08;;;;;;;;;;;;;;;13.40;62.78;100002.88;5100690;28;19931;-71
2022/09/23 01:39:37;;;;;;;;;;;;;;;13.47;62.43;100000.34;5101948;28;20169;-70
2022/09/23 01:42:12;;;;;;;;;;;;;;;13.70;61.80;100007.41;5101820;28;20014;-71
2022/09/23 01:44:58;;;;;;;;;;;;;;;13.95;61.14;99996.59;5100525;28;19912;-71
2022/09/23 01:47:29;;;;;;;;;;;;;;;14.06;60.46;100002.31;5100586;28;19916;-71
2022/09/23 01:52:55;;;;;;;;;;;;;;;14.32;59.10;99996.63;5102366;28;19973;-71
2022/09/23 01:55:26;;;;;;;;;;;;;;;14.51;58.82;99997.16;5101665;28;20176;-71
2022/09/23 01:57:58;;;;;;;;;;;;;;;14.11;59.85;99992.97;5099971;28;20135;-70
2022/09/23 02:00:25;;;;;;;;;;;;;;;14.14;60.02;99990.78;5099918;28;19992;-70
2022/09/23 02:02:58;;;;;;;;;;;;;;;14.18;59.51;99996.56;5100461;28;19912;-71
2022/09/23 02:05:23;;;;;;;;;;;;;;;14.19;59.66;99996.41;5099853;28;19961;-71
2022/09/23 02:07:53;;;;;;;;;;;;;;;14.24;59.49;99995.88;5099855;28;19912;-71
2022/09/23 02:10:40;;;;;;;;;;;;;;;14.10;59.52;100004.63;5100585;28;19924;-71
2022/09/23 02:13:14;;;;;;;;;;;;;;;14.07;59.30;100001.31;5102071;28;19912;-71
2022/09/23 02:15:43;;;;;;;;;;;;;;;14.11;59.60;100000.97;5101322;28;19916;-71
2022/09/23 02:18:14;;;;;;;;;;;;;;;13.79;60.79;100002.84;5100564;28;20202;-71
2022/09/23 02:20:40;;;;;;;;;;;;;;;13.79;60.53;100002.03;5099379;28;20213;-71
2022/09/23 02:23:26;;;;;;;;;;;;;;;13.84;60.57;99997.84;5099843;28;19919;-71
2022/09/23 02:26:10;;;;;;;;;;;;;;;13.60;61.53;100001.47;5099836;28;19916;-71
2022/09/23 02:29:02;;;;;;;;;;;;;;;13.72;60.92;99993.91;5099661;28;19912;-71
2022/09/23 02:31:39;;;;;;;;;;;;;;;13.89;60.07;100000.78;5068725;28;19919;-71
2022/09/23 02:34:14;;;;;;;;;;;;;;;13.76;60.22;99995.22;5098944;28;19922;-71
2022/09/23 02:36:52;;;;;;;;;;;;;;;13.55;60.58;99965.75;5099828;28;19916;-71
2022/09/23 02:39:19;;;;;;;;;;;;;;;13.67;60.76;100004.25;5099268;28;19927;-71
2022/09/23 02:41:52;;;;;;;;;;;;;;;13.71;60.72;100013.56;5100225;28;19916;-71
2022/09/23 02:44:18;;;;;;;;;;;;;;;13.66;60.63;100005.28;5099301;28;19927;-71
2022/09/23 02:46:45;;;;;;;;;;;;;;;13.47;61.44;100005.69;5099662;28;19916;-71
2022/09/23 02:49:31;;;;;;;;;;;;;;;13.40;61.77;100011.69;5085865;28;19983;-71
2022/09/23 02:51:58;;;;;;;;;;;;;;;12.97;63.05;100015.66;5101475;28;19916;-71
2022/09/23 02:54:25;;;;;;;;;;;;;;;13.22;62.64;100010.28;5102635;28;19950;-71
2022/09/23 02:56:52;;;;;;;;;;;;;;;13.26;62.34;100014.25;5102699;28;19923;-71
2022/09/23 02:59:18;;;;;;;;;;;;;;;13.18;62.64;100008.97;5102600;28;19908;-71
2022/09/23 03:01:59;;;;;;;;;;;;;;;13.32;62.43;100013.56;5102810;28;20110;-71
2022/09/23 03:04:30;;;;;;;;;;;;;;;13.03;62.23;100012.31;5102742;28;19912;-70
2022/09/23 03:07:07;;;;;;;;;;;;;;;12.76;63.28;100016.22;5102635;28;19926;-71
2022/09/23 03:09:36;;;;;;;;;;;;;;;12.66;63.92;100012.06;5102696;28;19912;-71
2022/09/23 03:12:10;;;;;;;;;;;;;;;12.77;63.45;100022.34;5102684;28;19916;-71
2022/09/23 03:14:48;;;;;;;;;;;;;;;13.00;63.19;100030.44;5102561;28;19915;-72
2022/09/23 03:17:19;;;;;;;;;;;;;;;12.97;63.55;100028.13;5102525;28;19969;-71
2022/09/23 03:19:50;;;;;;;;;;;;;;;12.94;63.14;100033.78;5081022;28;19916;-71
2022/09/23 03:22:17;;;;;;;;;;;;;;;12.92;63.98;100027.78;5093759;28;19916;-71
2022/09/23 03:24:44;;;;;;;;;;;;;;;12.90;64.09;100030.63;5102497;28;19908;-72
2022/09/23 03:27:16;;;;;;;;;;;;;;;13.04;63.08;100035.25;5102599;28;20201;-72
2022/09/23 03:29:44;;;;;;;;;;;;;;;13.01;63.22;100032.09;5102476;28;19912;-71
2022/09/23 03:32:10;;;;;;;;;;;;;;;12.90;63.80;100032.44;5102404;28;19938;-71
2022/09/23 03:34:37;;;;;;;;;;;;;;;12.84;63.39;100027.81;5102128;28;20075;-71
2022/09/23 03:37:18;;;;;;;;;;;;;;;12.88;63.38;100034.44;5102532;28;19947;-70
2022/09/23 03:39:55;;;;;;;;;;;;;;;12.87;63.23;100036.28;5102334;28;19951;-70
2022/09/23 03:42:25;;;;;;;;;;;;;;;12.98;63.20;100038.56;5101275;28;20236;-70
2022/09/23 03:44:52;;;;;;;;;;;;;;;12.88;63.40;100034.44;5101644;28;19920;-70
2022/09/23 03:47:18;;;;;;;;;;;;;;;13.24;61.96;100037.53;5099947;28;20213;-70
2022/09/23 03:49:48;;;;;;;;;;;;;;;13.31;61.72;100047.31;5099576;28;19919;-70
2022/09/23 03:52:13;;;;;;;;;;;;;;;13.20;61.99;100057.50;5098164;28;19923;-70
2022/09/23 03:54:39;;;;;;;;;;;;;;;13.01;62.95;100050.69;5100654;28;19912;-71
2022/09/23 03:57:04;;;;;;;;;;;;;;;13.00;62.76;100046.38;5100650;28;19954;-70
2022/09/23 03:59:30;;;;;;;;;;;;;;;13.29;61.90;100046.66;5099288;28;20174;-70
2022/09/23 04:01:55;;;;;;;;;;;;;;;13.27;61.59;100047.81;5101705;28;19927;-71
2022/09/23 04:04:21;;;;;;;;;;;;;;;13.18;61.94;100047.03;5103075;28;19912;-70
2022/09/23 04:06:46;;;;;;;;;;;;;;;13.19;62.30;100047.84;5103043;28;20001;-70
2022/09/23 04:09:12;;;;;;;;;;;;;;;13.10;62.20;100045.19;5102103;28;19916;-70
2022/09/23 04:11:37;;;;;;;;;;;;;;;13.25;61.39;100045.34;5103063;28;19935;-70
2022/09/23 04:14:03;;;;;;;;;;;;;;;13.21;61.74;100040.53;5102306;28;19912;-70
2022/09/23 04:16:28;;;;;;;;;;;;;;;12.87;62.93;100043.41;5103270;28;19919;-70
2022/09/23 04:18:53;;;;;;;;;;;;;;;12.70;63.84;100056.75;5102000;28;19987;-70
2022/09/23 04:21:19;;;;;;;;;;;;;;;12.36;65.37;100061.38;5102038;28;19920;-70
2022/09/23 04:23:47;;;;;;;;;;;;;;;12.10;66.25;100062.34;5102378;28;19927;-71
2022/09/23 04:26:13;;;;;;;;;;;;;;;12.00;68.61;100066.97;5101803;28;19983;-71
2022/09/23 04:28:38;;;;;;;;;;;;;;;12.18;67.84;100066.00;5102573;28;19916;-70
2022/09/23 04:31:05;;;;;;;;;;;;;;;12.34;66.79;100061.53;5102065;28;19916;-70
2022/09/23 04:33:30;;;;;;;;;;;;;;;12.28;66.72;100029.50;5084259;28;20192;-70
2022/09/23 04:35:55;;;;;;;;;;;;;;;12.61;66.26;100063.06;5101698;28;20025;-70
2022/09/23 04:38:21;;;;;;;;;;;;;;;12.59;67.07;100070.38;5102886;28;19927;-71
2022/09/23 04:40:46;;;;;;;;;;;;;;;12.56;66.73;100072.53;5101452;28;19928;-70
2022/09/23 04:43:14;;;;;;;;;;;;;;;12.54;67.09;100070.03;5101593;28;19979;-70
2022/09/23 04:45:40;;;;;;;;;;;;;;;12.65;66.92;100071.53;5103711;28;19996;-70
2022/09/23 04:48:05;;;;;;;;;;;;;;;12.70;67.61;100074.50;5103725;28;19965;-70
2022/09/23 04:50:32;;;;;;;;;;;;;;;12.71;67.22;100068.19;5101401;28;19927;-70
2022/09/23 04:52:57;;;;;;;;;;;;;;;13.03;66.05;100073.44;5102130;28;19969;-70
2022/09/23 04:55:23;;;;;;;;;;;;;;;12.88;66.72;100075.16;5085053;28;19923;-70
2022/09/23 04:57:48;;;;;;;;;;;;;;;12.83;67.14;100077.47;5101804;28;19912;-70
2022/09/23 05:00:14;;;;;;;;;;;;;;;13.13;66.92;100077.75;5100890;28;20404;-70
2022/09/23 05:02:43;;;;;;;;;;;;;;;13.18;65.81;100078.94;5101289;28;19912;-70
2022/09/23 05:05:08;;;;;;;;;;;;;;;13.14;66.21;100077.56;5101902;28;19924;-70
2022/09/23 05:07:34;;;;;;;;;;;;;;;13.11;66.09;100088.56;5085208;28;19911;-70
2022/09/23 05:10:00;;;;;;;;;;;;;;;13.18;66.01;100084.25;5102923;28;19912;-70
2022/09/23 05:12:25;;;;;;;;;;;;;;;13.42;65.41;100089.50;5102352;28;20230;-70
2022/09/23 05:14:50;;;;;;;;;;;;;;;13.48;64.59;100095.94;5100944;28;19942;-70
2022/09/23 05:17:16;;;;;;;;;;;;;;;13.43;64.98;100095.63;5100824;28;20079;-70
2022/09/23 05:19:41;;;;;;;;;;;;;;;13.49;64.82;100097.59;5101767;28;19926;-71
2022/09/23 05:22:06;;;;;;;;;;;;;;;13.71;64.04;100096.06;5100689;28;19923;-71
2022/09/23 05:24:31;;;;;;;;;;;;;;;13.78;63.34;100093.53;5101576;28;19920;-70
2022/09/23 05:26:57;;;;;;;;;;;;;;;13.85;62.99;100092.66;5100304;28;19923;-70
2022/09/23 05:29:22;;;;;;;;;;;;;;;14.17;62.75;100094.28;5101294;28;19920;-70
2022/09/23 05:31:47;;;;;;;;;;;;;;;14.48;61.66;100091.59;5100713;28;19923;-70
2022/09/23 05:34:13;;;;;;;;;;;;;;;15.00;59.34;100088.16;5100392;28;20190;-70
2022/09/23 05:36:38;;;;;;;;;;;;;;;15.21;58.42;100088.25;5101500;28;19924;-70
2022/09/23 05:39:04;;;;;;;;;;;;;;;15.22;58.58;100087.25;5100680;28;19912;-70
2022/09/23 05:41:29;;;;;;;;;;;;;;;14.91;58.53;100083.91;5101508;28;19943;-70
2022/09/23 05:43:55;;;;;;;;;;;;;;;15.24;57.84;100079.91;5102935;28;19912;-70
2022/09/23 05:46:29;;;;;;;;;;;;;;;15.53;57.17;100083.56;5101248;28;20274;-70
2022/09/23 05:48:55;;;;;;;;;;;;;;;15.47;56.68;100086.97;5100435;28;19982;-70
2022/09/23 05:51:22;;;;;;;;;;;;;;;15.46;56.87;100082.63;5101642;28;20106;-70
2022/09/23 05:53:50;;;;;;;;;;;;;;;15.62;55.68;100087.84;5101784;28;19919;-70
2022/09/23 05:56:17;;;;;;;;;;;;;;;15.52;56.10;100079.22;5100148;28;19916;-70
2022/09/23 05:58:42;;;;;;;;;;;;;;;15.91;54.24;100087.78;5100795;28;20252;-70
2022/09/23 06:01:11;;;;;;;;;;;;;;;16.00;53.49;100076.97;5099821;28;19920;-71
2022/09/23 06:03:37;;;;;;;;;;;;;;;16.42;52.48;100081.50;5100033;28;19919;-70
2022/09/23 06:06:02;;;;;;;;;;;;;;;16.54;52.44;100072.78;5100446;28;19916;-70
2022/09/23 06:08:27;;;;;;;;;;;;;;;16.67;52.50;100072.13;5100012;28;20109;-70
2022/09/23 06:10:53;;;;;;;;;;;;;;;17.12;51.04;100078.84;5100743;28;19923;-70
2022/09/23 06:13:18;;;;;;;;;;;;;;;17.40;49.74;100073.44;5099972;28;20687;-70
2022/09/23 06:15:43;;;;;;;;;;;;;;;17.05;49.68;100083.31;5100315;28;19982;-70
2022/09/23 06:18:09;;;;;;;;;;;;;;;17.21;49.04;100071.47;5100279;28;19926;-70
2022/09/23 06:20:34;;;;;;;;;;;;;;;17.36;49.11;100074.84;5099689;28;20261;-70
2022/09/23 06:23:07;;;;;;;;;;;;;;;17.51;48.63;100067.50;5082274;28;19990;-70
2022/09/23 06:25:33;;;;;;;;;;;;;;;17.91;48.13;100077.63;5099751;28;19923;-71
2022/09/23 06:27:59;;;;;;;;;;;;;;;17.63;47.28;100062.41;5099488;28;19920;-71
2022/09/23 06:30:25;;;;;;;;;;;;;;;17.34;48.53;100066.19;5099937;28;19916;-71
2022/09/23 06:32:51;;;;;;;;;;;;;;;17.37;48.84;100075.69;5099193;28;19916;-71
2022/09/23 06:35:17;;;;;;;;;;;;;;;17.13;48.65;100077.81;5096441;28;20273;-70
2022/09/23 06:37:43;;;;;;;;;;;;;;;17.19;48.35;100073.53;5100252;28;19919;-70
2022/09/23 06:40:09;;;;;;;;;;;;;;;17.35;48.71;100070.53;5101633;28;20150;-70
2022/09/23 06:42:34;;;;;;;;;;;;;;;17.42;48.55;100073.25;5099583;28;19946;-70
2022/09/23 06:45:00;;;;;;;;;;;;;;;17.62;47.50;100071.47;5099575;28;19912;-70
2022/09/23 06:47:26;;;;;;;;;;;;;;;17.78;46.78;100070.38;5101366;28;20184;-70
2022/09/23 06:49:51;;;;;;;;;;;;;;;17.98;46.28;100079.28;5100811;28;20242;-70
2022/09/23 06:52:17;;;;;;;;;;;;;;;17.91;45.60;100062.38;5101314;28;19924;-70
2022/09/23 06:54:42;;;;;;;;;;;;;;;17.88;45.98;100075.34;5101334;28;19931;-70
2022/09/23 06:57:09;;;;;;;;;;;;;;;17.98;46.04;100084.66;5101345;28;19990;-70
2022/09/23 06:59:34;;;;;;;;;;;;;;;17.82;45.56;100090.38;5100379;28;19912;-70
2022/09/23 07:01:59;;;;;;;;;;;;;;;18.04;45.30;100081.16;5099453;28;19931;-70
2022/09/23 07:04:25;;;;;;;;;;;;;;;18.38;45.32;100079.38;5083128;28;20281;-70
2022/09/23 07:06:52;;;;;;;;;;;;;;;18.57;44.47;100083.09;5100170;28;19961;-70
2022/09/23 07:09:17;;;;;;;;;;;;;;;18.91;44.47;100087.47;5101288;28;19912;-70
2022/09/23 07:11:43;;;;;;;;;;;;;;;18.89;44.40;100082.31;5100208;28;20144;-71
2022/09/23 07:14:08;;;;;;;;;;;;;;;19.03;43.15;100086.63;5098955;28;19939;-71
2022/09/23 07:16:33;;;;;;;;;;;;;;;18.86;43.50;100079.22;5099563;28;20110;-71
2022/09/23 07:18:59;;;;;;;;;;;;;;;19.27;42.86;100084.31;5098965;28;19993;-71
2022/09/23 07:21:24;;;;;;;;;;;;;;;19.06;42.76;100088.09;5099662;28;19923;-71
2022/09/23 07:23:50;;;;;;;;;;;;;;;19.11;42.44;100086.44;5101303;28;20105;-71
2022/09/23 07:26:16;;;;;;;;;;;;;;;18.81;42.71;100088.72;5100508;28;19931;-71
2022/09/23 07:28:42;;;;;;;;;;;;;;;18.52;42.77;100086.38;5099091;28;19918;-71
2022/09/23 07:31:12;;;;;;;;;;;;;;;18.55;43.23;100096.72;5081297;28;19928;-71
2022/09/23 07:33:38;;;;;;;;;;;;;;;18.99;42.40;100089.94;5099016;28;19912;-71
2022/09/23 07:36:08;;;;;;;;;;;;;;;19.27;41.82;100092.38;5099735;28;20157;-71
2022/09/23 07:38:35;;;;;;;;;;;;;;;19.56;41.73;100099.97;5103623;28;20102;-71
2022/09/23 07:41:01;;;;;;;;;;;;;;;19.63;40.55;100100.78;5103228;28;19915;-71
2022/09/23 07:43:30;;;;;;;;;;;;;;;19.91;39.75;100105.84;5103763;28;19911;-71
2022/09/23 07:45:56;;;;;;;;;;;;;;;19.77;40.18;100096.19;5088470;28;20151;-71
2022/09/23 07:48:21;;;;;;;;;;;;;;;19.75;39.86;100099.06;5102975;28;20127;-71
2022/09/23 07:50:46;;;;;;;;;;;;;;;19.73;39.98;100103.00;5103284;28;19916;-71
2022/09/23 07:53:12;;;;;;;;;;;;;;;19.69;39.36;100105.28;5102787;28;19916;-71
2022/09/23 07:55:38;;;;;;;;;;;;;;;19.75;39.38;100100.94;5086387;28;19916;-71
2022/09/23 07:58:03;;;;;;;;;;;;;;;19.65;40.41;100097.88;5104233;28;19951;-71
2022/09/23 08:00:29;;;;;;;;;;;;;;;19.44;40.59;100096.25;5102390;28;20022;-70
2022/09/23 08:02:54;;;;;;;;;;;;;;;19.75;40.26;100088.31;5103466;28;20138;-71
2022/09/23 08:05:19;;;;;;;;;;;;;;;19.75;40.42;100093.69;5102422;28;20101;-70
2022/09/23 08:07:44;;;;;;;;;;;;;;;20.06;40.02;100092.97;5102767;28;19927;-71
2022/09/23 08:10:10;;;;;;;;;;;;;;;19.90;40.12;100090.78;5103786;28;19982;-70
2022/09/23 08:12:35;;;;;;;;;;;;;;;20.04;39.58;100092.34;5104301;28;20146;-70
2022/09/23 08:15:01;;;;;;;;;;;;;;;20.29;39.17;100095.09;5102970;28;20217;-70
2022/09/23 08:17:26;;;;;;;;;;;;;;;20.22;39.45;100085.41;5103812;28;19912;-70
2022/09/23 08:19:52;;;;;;;;;;;;;;;20.37;39.47;100084.06;5103207;28;19939;-71
2022/09/23 08:22:18;;;;;;;;;;;;;;;20.60;38.64;100072.75;5102552;28;19928;-71
2022/09/23 08:24:43;;;;;;;;;;;;;;;20.56;38.03;100068.88;5101829;28;19915;-71
2022/09/23 08:27:10;;;;;;;;;;;;;;;20.59;38.10;100065.72;5088017;28;20105;-71
2022/09/23 08:29:35;;;;;;;;;;;;;;;20.54;38.48;100065.56;5102667;28;19916;-71
2022/09/23 08:32:01;;;;;;;;;;;;;;;20.81;38.50;100066.19;5103667;28;20129;-71
2022/09/23 08:34:27;;;;;;;;;;;;;;;20.96;37.29;100053.22;5102628;28;20221;-71
2022/09/23 08:36:52;;;;;;;;;;;;;;;20.88;38.00;100053.50;5102322;28;19916;-71
2022/09/23 08:39:19;;;;;;;;;;;;;;;20.52;37.79;100050.69;5103921;28;19922;-71
2022/09/23 08:41:53;;;;;;;;;;;;;;;20.24;38.52;100053.75;5102644;28;19939;-71
2022/09/23 08:44:20;;;;;;;;;;;;;;;20.24;37.05;100045.69;5102585;28;19920;-71
2022/09/23 08:46:51;;;;;;;;;;;;;;;20.05;38.29;100042.91;5101525;28;19923;-71
2022/09/23 08:49:26;;;;;;;;;;;;;;;20.32;39.58;100045.44;5102626;28;19950;-71
2022/09/23 08:51:53;;;;;;;;;;;;;;;20.44;37.12;100043.72;5084721;28;20118;-71
2022/09/23 08:54:19;;;;;;;;;;;;;;;20.97;38.07;100043.28;5102208;28;19949;-71
2022/09/23 08:56:48;;;;;;;;;;;;;;;21.17;36.93;100045.75;5102731;28;19943;-71
2022/09/23 08:59:27;;;;;;;;;;;;;;;21.22;35.92;100041.38;5102215;28;19912;-71
2022/09/23 09:01:56;;;;;;;;;;;;;;;21.37;36.37;100035.63;5101499;28;19946;-71
2022/09/23 09:04:26;;;;;;;;;;;;;;;21.41;36.45;100035.97;5101373;28;20106;-71
2022/09/23 09:06:58;;;;;;;;;;;;;;;21.45;35.34;100032.63;5101147;28;19916;-71
2022/09/23 09:09:23;;;;;;;;;;;;;;;21.31;35.56;100028.44;5101600;28;19912;-71
2022/09/23 09:11:51;;;;;;;;;;;;;;;21.31;36.01;100028.44;5102369;28;19938;-71
2022/09/23 09:14:26;;;;;;;;;;;;;;;21.46;34.99;100025.34;5103051;28;19912;-71
2022/09/23 09:17:03;;;;;;;;;;;;;;;21.78;34.80;100025.97;5102421;28;19916;-71
2022/09/23 09:19:39;;;;;;;;;;;;;;;21.59;34.69;100030.56;5083754;28;19912;-71
2022/09/23 09:22:06;;;;;;;;;;;;;;;21.43;34.91;100028.50;5098462;28;19947;-71
2022/09/23 09:24:34;;;;;;;;;;;;;;;21.52;35.26;100027.16;5101244;28;19919;-71
2022/09/23 09:27:00;;;;;;;;;;;;;;;21.46;33.58;100028.06;5100720;28;20206;-71
2022/09/23 09:29:37;;;;;;;;;;;;;;;21.53;33.09;100020.72;5101478;28;19919;-71
2022/09/23 09:32:23;;;;;;;;;;;;;;;21.16;32.99;100018.00;5101158;28;20216;-71
2022/09/23 09:34:54;;;;;;;;;;;;;;;20.83;34.37;100022.91;5101282;28;19919;-71
2022/09/23 09:37:35;;;;;;;;;;;;;;;20.78;34.68;100025.41;5101459;28;20118;-71
2022/09/23 09:40:01;;;;;;;;;;;;;;;20.75;34.44;100012.41;5102575;28;19911;-71
2022/09/23 09:42:36;;;;;;;;;;;;;;;21.11;34.23;100028.63;5102007;28;19967;-71
2022/09/23 09:45:03;;;;;;;;;;;;;;;21.04;32.63;100022.50;5100532;28;20260;-71
2022/09/23 09:47:45;;;;;;;;;;;;;;;20.98;33.16;100015.31;5102023;28;19915;-70
2022/09/23 09:50:17;;;;;;;;;;;;;;;21.08;31.66;100023.69;5102413;28;19916;-71
2022/09/23 09:52:43;;;;;;;;;;;;;;;20.93;32.94;100025.91;5100224;28;19912;-71
2022/09/23 09:55:11;;;;;;;;;;;;;;;21.04;32.65;100026.00;5100087;28;20130;-71
2022/09/23 09:57:40;;;;;;;;;;;;;;;21.10;32.04;100018.09;5100514;28;19912;-71
2022/09/23 10:00:17;;;;;;;;;;;;;;;21.27;30.95;100011.06;5100987;28;19935;-71
2022/09/23 10:02:43;;;;;;;;;;;;;;;21.24;31.65;100014.22;5099822;28;21366;-70
2022/09/23 10:05:22;;;;;;;;;;;;;;;21.35;31.77;100014.28;5099777;28;20256;-71
2022/09/23 10:07:47;;;;;;;;;;;;;;;21.16;31.04;100018.00;5097793;28;19916;-71
2022/09/23 10:10:19;;;;;;;;;;;;;;;21.18;31.69;100007.84;5100125;28;20153;-71
2022/09/23 10:12:45;;;;;;;;;;;;;;;21.33;30.91;100005.63;5100233;28;20210;-71
2022/09/23 10:15:32;;;;;;;;;;;;;;;21.31;30.30;100006.88;5100486;28;19922;-71
2022/09/23 10:18:00;;;;;;;;;;;;;;;21.41;29.81;99998.28;5100335;28;20182;-71
2022/09/23 10:20:29;;;;;;;;;;;;;;;21.46;29.45;99999.25;5083074;28;20012;-71
2022/09/23 10:22:55;;;;;;;;;;;;;;;21.40;29.30;99989.38;5082637;28;20106;-71
2022/09/23 10:25:25;;;;;;;;;;;;;;;21.43;29.94;99991.59;5101842;28;20193;-70
2022/09/23 10:27:51;;;;;;;;;;;;;;;21.41;29.74;99987.50;5100618;28;20197;-71
2022/09/23 10:30:21;;;;;;;;;;;;;;;21.52;29.10;99982.16;5099392;28;19930;-71
2022/09/23 10:32:46;;;;;;;;;;;;;;;21.44;29.25;99990.56;5099072;28;20091;-71
2022/09/23 10:35:23;;;;;;;;;;;;;;;21.10;29.68;99980.38;5100161;28;19920;-71
2022/09/23 10:37:52;;;;;;;;;;;;;;;21.25;29.60;99973.59;5101810;28;19912;-71
2022/09/23 10:49:11;;;;;;;;;;;;;;;21.47;29.42;99963.16;5099750;28;19919;-71
2022/09/23 10:51:45;;;;;;;;;;;;;;;21.59;29.07;99955.94;5100388;28;19959;-71
2022/09/23 10:54:29;;;;;;;;;;;;;;;21.72;29.57;99962.19;5102030;28;20105;-71
2022/09/23 10:57:36;;;;;;;;;;;;;;;21.54;30.21;99958.50;5103125;28;19916;-71
2022/09/23 11:00:09;;;;;;;;;;;;;;;21.15;31.14;99959.00;5102808;28;19990;-71
2022/09/23 11:02:44;;;;;;;;;;;;;;;21.39;30.43;99958.09;5084583;28;19916;-71
2022/09/23 11:05:31;;;;;;;;;;;;;;;21.29;30.18;99953.25;5084508;28;19919;-71
2022/09/23 11:08:17;;;;;;;;;;;;;;;21.16;31.77;99950.69;5041797;28;19940;-71
2022/09/23 11:10:48;;;;;;;;;;;;;;;21.27;31.04;99941.88;5062438;28;19916;-70
2022/09/23 11:13:29;;;;;;;;;;;;;;;21.33;30.86;99940.16;5066611;28;19909;-70
2022/09/23 11:16:08;;;;;;;;;;;;;;;21.04;30.01;99937.16;5066426;28;20204;-70
2022/09/23 11:18:52;;;;;;;;;;;;;;;21.36;29.19;99937.00;5066871;28;19908;-70
2022/09/23 11:21:36;;;;;;;;;;;;;;;21.22;28.39;99933.66;5066641;28;19924;-70
2022/09/23 11:24:04;;;;;;;;;;;;;;;21.13;27.59;99921.53;5066398;28;19984;-71
2022/09/23 11:26:30;;;;;;;;;;;;;;;21.29;28.39;99918.22;5066499;28;19950;-71
2022/09/23 11:29:14;;;;;;;;;;;;;;;21.13;28.99;99924.22;5066244;28;19975;-71
2022/09/23 11:31:49;;;;;;;;;;;;;;;21.33;29.10;99911.34;5066302;28;19995;-72
2022/09/23 11:34:34;;;;;;;;;;;;;;;21.48;28.58;99913.63;5066060;28;19950;-71
2022/09/23 11:36:59;;;;;;;;;;;;;;;21.57;28.12;99908.72;5065874;28;19955;-71
2022/09/23 11:39:30;;;;;;;;;;;;;;;21.54;27.30;99912.69;5066087;28;20102;-71
2022/09/23 11:41:58;;;;;;;;;;;;;;;21.28;28.08;99910.38;5066445;28;20099;-71
2022/09/23 11:44:27;;;;;;;;;;;;;;;21.40;27.71;99883.50;5066009;28;19908;-71
2022/09/23 11:47:02;;;;;;;;;;;;;;;21.60;27.12;99897.50;5061937;28;19924;-71
2022/09/23 11:49:28;;;;;;;;;;;;;;;21.81;28.12;99896.97;5062939;28;19912;-71
2022/09/23 11:52:13;;;;;;;;;;;;;;;21.55;27.85;99886.59;5062958;28;19921;-71
2022/09/23 11:54:50;;;;;;;;;;;;;;;21.47;28.61;99884.22;5063128;28;19916;-71
2022/09/23 11:57:29;;;;;;;;;;;;;;;21.47;27.88;99878.81;5062980;28;19924;-71
2022/09/23 12:00:06;;;;;;;;;;;;;;;21.53;27.35;99880.59;5063039;28;19982;-71
2022/09/23 12:02:47;;;;;;;;;;;;;;;21.55;26.86;99875.81;5060174;28;20099;-71
2022/09/23 12:05:18;;;;;;;;;;;;;;;21.38;27.64;99872.94;5061519;28;20002;-71
2022/09/23 12:07:47;;;;;;;;;;;;;;;21.29;26.97;99874.31;5097946;28;19935;-70
2022/09/23 12:10:13;;;;;;;;;;;;;;;21.40;27.65;99880.78;5101124;28;19992;-71
2022/09/23 12:12:50;;;;;;;;;;;;;;;21.44;27.69;99877.41;5083155;28;19981;-72
2022/09/23 12:15:18;;;;;;;;;;;;;;;21.58;26.81;99875.34;5082808;28;19922;-71
2022/09/23 12:18:02;;;;;;;;;;;;;;;21.23;27.19;99873.34;5102839;28;19919;-70
2022/09/23 12:20:49;;;;;;;;;;;;;;;21.45;26.96;99868.28;5102793;28;19916;-70
2022/09/23 12:23:23;;;;;;;;;;;;;;;21.64;26.79;99863.66;5102193;28;19943;-70
2022/09/23 12:25:52;;;;;;;;;;;;;;;21.52;26.86;99869.00;5103894;28;19969;-70
2022/09/23 12:28:23;;;;;;;;;;;;;;;21.54;26.55;99869.59;5103435;28;19963;-70
2022/09/23 12:30:49;;;;;;;;;;;;;;;21.61;26.47;99866.81;5102885;28;19916;-70
2022/09/23 12:33:15;;;;;;;;;;;;;;;21.86;25.90;99872.03;5103292;28;19912;-72
2022/09/23 12:35:41;;;;;;;;;;;;;;;21.82;25.72;99870.81;5101637;28;20190;-71
2022/09/23 12:38:13;;;;;;;;;;;;;;;21.50;26.71;99863.03;5102298;28;19919;-71
2022/09/23 12:40:43;;;;;;;;;;;;;;;21.41;26.54;99866.28;5103627;28;19916;-71
2022/09/23 12:43:26;;;;;;;;;;;;;;;21.52;26.17;99870.88;5103429;28;20209;-70
2022/09/23 12:45:51;;;;;;;;;;;;;;;21.53;27.29;99872.53;5102555;28;19923;-70
2022/09/23 12:48:16;;;;;;;;;;;;;;;21.68;27.34;99868.34;5101558;28;20135;-70
2022/09/23 12:51:12;;;;;;;;;;;;;;;21.66;27.27;99875.84;5102479;28;20000;-71
2022/09/23 12:53:37;;;;;;;;;;;;;;;21.08;28.71;99875.59;5101327;28;19940;-71
2022/09/23 12:56:23;;;;;;;;;;;;;;;20.90;28.27;99881.84;5101842;28;19954;-71
2022/09/23 12:58:49;;;;;;;;;;;;;;;20.82;28.32;99889.41;5102185;28;19999;-71
2022/09/23 13:01:17;;;;;;;;;;;;;;;21.10;28.64;99891.53;5083842;28;19928;-71
2022/09/23 13:06:38;;;;;;;;;;;;;;;20.79;28.03;99896.03;5099698;28;20110;-71
2022/09/23 13:09:23;;;;;;;;;;;;;;;21.01;27.61;99888.34;5101335;28;19912;-70